Time;durP1;ratioP1;P1;durP2;ratioP2;P2;SDS_P1;SDS_P2;PMS_P1;PMS_P2;Temp;Humidity;BMP_temperature;BMP_pressure;BME280_temperature;BME280_humidity;BME280_pressure;Samples;Min_cycle;Max_cycle;Signal;HPM_P1;HPM_P2
2022/08/17 00:01:23;;;;;;;8.25;3.63;;;;;;;;;;5034842;28;20057;-79
2022/08/17 00:03:49;;;;;;;7.60;3.45;;;;;;;;;;5017066;28;20045;-79
2022/08/17 00:06:19;;;;;;;8.00;3.80;;;;;;;;;;5018518;28;20029;-79
2022/08/17 00:08:46;;;;;;;8.50;3.65;;;;;;;;;;5033560;28;20040;-79
2022/08/17 00:11:22;;;;;;;7.32;3.30;;;;;;;;;;5033691;28;20537;-79
2022/08/17 00:13:48;;;;;;;9.20;3.70;;;;;;;;;;5002983;28;20025;-79
2022/08/17 00:16:18;;;;;;;8.13;3.58;;;;;;;;;;5019295;28;20026;-78
2022/08/17 00:18:44;;;;;;;6.20;2.97;;;;;;;;;;5021732;28;20087;-79
2022/08/17 00:21:10;;;;;;;6.13;3.58;;;;;;;;;;5034642;28;20476;-79
2022/08/17 00:23:36;;;;;;;7.10;3.20;;;;;;;;;;5033464;28;20040;-79
2022/08/17 00:26:01;;;;;;;5.65;3.08;;;;;;;;;;5034947;28;20109;-79
2022/08/17 00:28:27;;;;;;;7.18;3.25;;;;;;;;;;5014629;28;20108;-79
2022/08/17 00:30:52;;;;;;;5.22;3.15;;;;;;;;;;5045640;28;20079;-79
2022/08/17 00:33:18;;;;;;;11.05;3.60;;;;;;;;;;5031028;28;20059;-79
2022/08/17 00:35:44;;;;;;;6.85;3.60;;;;;;;;;;5044697;28;20411;-79
2022/08/17 00:38:11;;;;;;;5.80;3.50;;;;;;;;;;5047868;28;20029;-79
2022/08/17 00:40:37;;;;;;;10.18;3.50;;;;;;;;;;5028346;28;20331;-78
2022/08/17 00:43:08;;;;;;;7.57;3.20;;;;;;;;;;5047218;28;20070;-79
2022/08/17 00:45:33;;;;;;;6.70;3.53;;;;;;;;;;5045276;28;20513;-79
2022/08/17 00:47:59;;;;;;;7.30;3.40;;;;;;;;;;5046016;28;20120;-79
2022/08/17 00:50:24;;;;;;;10.45;3.80;;;;;;;;;;5041191;28;20029;-79
2022/08/17 00:52:52;;;;;;;9.43;3.72;;;;;;;;;;5041223;28;20071;-79
2022/08/17 00:55:18;;;;;;;7.38;3.50;;;;;;;;;;5041765;28;21303;-79
2022/08/17 00:57:45;;;;;;;6.05;3.10;;;;;;;;;;5033519;28;20040;-80
2022/08/17 01:00:13;;;;;;;4.90;3.00;;;;;;;;;;5018037;28;20053;-79
2022/08/17 01:02:39;;;;;;;7.18;3.33;;;;;;;;;;5019697;28;20033;-79
2022/08/17 01:05:05;;;;;;;7.55;3.40;;;;;;;;;;5015804;28;20488;-79
2022/08/17 01:07:31;;;;;;;6.18;3.20;;;;;;;;;;4999866;28;20059;-79
2022/08/17 01:09:57;;;;;;;7.57;3.38;;;;;;;;;;5033310;28;20033;-79
2022/08/17 01:12:23;;;;;;;9.15;3.25;;;;;;;;;;5034250;28;20033;-79
2022/08/17 01:14:48;;;;;;;9.48;3.33;;;;;;;;;;5033118;28;20033;-79
2022/08/17 01:17:13;;;;;;;7.13;3.40;;;;;;;;;;5033818;28;20507;-79
2022/08/17 01:19:39;;;;;;;7.18;3.30;;;;;;;;;;5034022;28;20508;-79
2022/08/17 01:22:08;;;;;;;9.07;3.35;;;;;;;;;;5032570;28;20039;-78
2022/08/17 01:24:37;;;;;;;5.97;3.20;;;;;;;;;;5032536;28;20101;-79
2022/08/17 01:27:03;;;;;;;10.02;3.90;;;;;;;;;;5016574;28;20576;-79
2022/08/17 01:29:29;;;;;;;7.78;3.30;;;;;;;;;;5016955;28;20093;-80
2022/08/17 01:31:56;;;;;;;7.13;3.70;;;;;;;;;;5032864;28;20040;-79
2022/08/17 01:34:21;;;;;;;8.10;3.35;;;;;;;;;;5034611;28;20044;-79
2022/08/17 01:36:47;;;;;;;6.47;3.33;;;;;;;;;;5034511;28;20488;-80
2022/08/17 01:39:17;;;;;;;7.97;3.50;;;;;;;;;;5034504;28;20566;-80
2022/08/17 01:41:44;;;;;;;8.85;3.72;;;;;;;;;;5032800;28;20038;-80
2022/08/17 01:44:09;;;;;;;9.48;3.78;;;;;;;;;;5017028;28;20488;-79
2022/08/17 01:46:35;;;;;;;8.43;3.53;;;;;;;;;;5016792;28;20052;-80
2022/08/17 01:49:00;;;;;;;7.32;3.63;;;;;;;;;;5032867;28;20104;-79
2022/08/17 01:51:29;;;;;;;6.75;3.25;;;;;;;;;;5012434;28;20124;-80
2022/08/17 01:53:56;;;;;;;7.35;4.72;;;;;;;;;;5031871;28;20021;-79
2022/08/17 01:56:21;;;;;;;7.45;3.67;;;;;;;;;;5032952;28;20029;-79
2022/08/17 01:58:47;;;;;;;5.63;3.22;;;;;;;;;;5035365;28;20021;-80
2022/08/17 02:01:15;;;;;;;5.93;3.30;;;;;;;;;;5035095;28;20061;-79
2022/08/17 02:03:41;;;;;;;10.18;3.50;;;;;;;;;;5019286;28;20017;-79
2022/08/17 02:06:06;;;;;;;6.13;3.80;;;;;;;;;;5035373;28;20041;-80
2022/08/17 02:08:34;;;;;;;14.90;4.28;;;;;;;;;;5033769;28;20522;-79
2022/08/17 02:11:03;;;;;;;10.65;4.95;;;;;;;;;;5031621;28;20488;-78
2022/08/17 02:13:29;;;;;;;10.18;3.72;;;;;;;;;;5045564;28;20045;-79
2022/08/17 02:15:58;;;;;;;6.80;3.33;;;;;;;;;;5032636;28;20083;-79
2022/08/17 02:18:24;;;;;;;8.73;3.53;;;;;;;;;;5036721;28;20032;-80
2022/08/17 02:20:50;;;;;;;9.50;3.78;;;;;;;;;;5034017;28;20029;-79
2022/08/17 02:23:15;;;;;;;10.20;3.97;;;;;;;;;;5031974;28;20029;-79
2022/08/17 02:25:42;;;;;;;7.05;3.63;;;;;;;;;;5031161;28;20045;-80
2022/08/17 02:28:07;;;;;;;10.93;3.30;;;;;;;;;;5017390;28;20141;-80
2022/08/17 02:30:33;;;;;;;8.15;3.63;;;;;;;;;;5036959;28;20163;-79
2022/08/17 02:32:59;;;;;;;5.93;3.22;;;;;;;;;;5024299;28;20119;-79
2022/08/17 02:35:24;;;;;;;8.95;3.60;;;;;;;;;;5042668;28;20079;-80
2022/08/17 02:37:50;;;;;;;9.38;3.92;;;;;;;;;;5014490;28;20017;-79
2022/08/17 02:40:16;;;;;;;12.30;3.53;;;;;;;;;;5020198;28;20033;-80
2022/08/17 02:42:42;;;;;;;8.40;3.42;;;;;;;;;;5041683;28;20116;-79
2022/08/17 02:45:09;;;;;;;7.15;3.53;;;;;;;;;;5047297;28;20042;-80
2022/08/17 02:47:35;;;;;;;6.40;3.30;;;;;;;;;;5050744;28;20033;-78
2022/08/17 02:50:01;;;;;;;7.47;3.22;;;;;;;;;;5047469;28;20488;-79
2022/08/17 02:52:30;;;;;;;11.60;3.90;;;;;;;;;;5018372;28;20061;-79
2022/08/17 02:54:55;;;;;;;7.40;3.50;;;;;;;;;;5047397;28;20036;-79
2022/08/17 02:57:21;;;;;;;7.75;3.55;;;;;;;;;;5039077;28;20028;-78
2022/08/17 02:59:47;;;;;;;8.07;3.45;;;;;;;;;;5039931;28;20041;-79
2022/08/17 03:02:12;;;;;;;5.45;3.28;;;;;;;;;;5034998;28;20075;-80
2022/08/17 03:04:38;;;;;;;10.05;3.53;;;;;;;;;;5034683;28;20087;-79
2022/08/17 03:07:03;;;;;;;10.52;3.40;;;;;;;;;;5046614;28;20024;-79
2022/08/17 03:09:29;;;;;;;11.63;5.45;;;;;;;;;;5046007;28;20056;-79
2022/08/17 03:11:54;;;;;;;8.30;3.83;;;;;;;;;;5019237;28;20384;-79
2022/08/17 03:14:23;;;;;;;9.25;3.65;;;;;;;;;;5031634;28;20392;-78
2022/08/17 03:16:48;;;;;;;5.47;3.10;;;;;;;;;;5034861;28;20026;-79
2022/08/17 03:19:14;;;;;;;9.32;3.53;;;;;;;;;;5035354;28;20042;-79
2022/08/17 03:21:39;;;;;;;9.68;3.88;;;;;;;;;;5036126;28;20033;-79
2022/08/17 03:24:05;;;;;;;9.38;3.63;;;;;;;;;;5017838;28;20120;-78
2022/08/17 03:26:31;;;;;;;10.15;3.60;;;;;;;;;;5038077;28;20025;-79
2022/08/17 03:28:56;;;;;;;16.63;8.82;;;;;;;;;;5041786;28;20083;-78
2022/08/17 03:31:22;;;;;;;9.30;4.28;;;;;;;;;;5040538;28;20033;-78
2022/08/17 03:33:47;;;;;;;8.63;3.70;;;;;;;;;;5046472;28;20037;-79
2022/08/17 03:36:12;;;;;;;8.00;3.40;;;;;;;;;;5046028;28;20108;-79
2022/08/17 03:38:38;;;;;;;6.60;3.60;;;;;;;;;;5035700;28;20075;-78
2022/08/17 03:41:04;;;;;;;9.70;3.55;;;;;;;;;;5034209;28;20068;-78
2022/08/17 03:43:30;;;;;;;8.25;3.78;;;;;;;;;;5040580;28;20052;-78
2022/08/17 03:57:04;;;;;;;8.45;3.80;;;;;;;;;;5035110;28;20087;-79
2022/08/17 03:59:30;;;;;;;9.05;3.67;;;;;;;;;;5034056;28;20033;-80
2022/08/17 04:01:57;;;;;;;8.43;3.40;;;;;;;;;;5035855;28;20521;-80
2022/08/17 04:04:23;;;;;;;13.52;3.80;;;;;;;;;;5019041;28;20029;-81
2022/08/17 04:06:48;;;;;;;9.10;3.88;;;;;;;;;;5002740;28;20025;-81
2022/08/17 04:09:14;;;;;;;9.85;3.97;;;;;;;;;;5033653;28;20053;-81
2022/08/17 04:11:39;;;;;;;15.90;3.88;;;;;;;;;;5036848;28;20029;-80
2022/08/17 04:14:05;;;;;;;9.43;3.70;;;;;;;;;;5035138;28;20431;-79
2022/08/17 04:16:30;;;;;;;11.27;3.47;;;;;;;;;;5037111;28;20057;-79
2022/08/17 04:18:56;;;;;;;8.70;3.58;;;;;;;;;;5052081;28;20051;-79
2022/08/17 04:21:21;;;;;;;15.15;3.80;;;;;;;;;;5039728;28;20021;-78
2022/08/17 04:23:47;;;;;;;7.68;3.30;;;;;;;;;;5036392;28;20405;-79
2022/08/17 04:26:13;;;;;;;11.25;3.72;;;;;;;;;;5044667;28;20029;-79
2022/08/17 04:28:42;;;;;;;7.07;3.40;;;;;;;;;;5048652;28;20047;-80
2022/08/17 04:31:10;;;;;;;8.75;3.55;;;;;;;;;;5050116;28;20399;-81
2022/08/17 04:33:36;;;;;;;8.00;3.30;;;;;;;;;;5049996;28;20087;-79
2022/08/17 04:36:02;;;;;;;11.80;3.80;;;;;;;;;;5051960;28;20056;-78
2022/08/17 04:38:28;;;;;;;10.25;3.80;;;;;;;;;;5050049;28;20048;-79
2022/08/17 04:43:39;;;;;;;11.80;4.32;;;;;;;;;;5066438;28;20039;-78
2022/08/17 04:46:08;;;;;;;12.93;4.70;;;;;;;;;;5034700;28;20101;-79
2022/08/17 04:48:35;;;;;;;9.70;5.03;;;;;;;;;;5039584;28;20112;-79
2022/08/17 04:51:00;;;;;;;10.80;4.70;;;;;;;;;;5037573;28;20017;-80
2022/08/17 04:53:26;;;;;;;16.95;4.75;;;;;;;;;;5035918;28;20041;-78
2022/08/17 04:55:51;;;;;;;10.50;4.22;;;;;;;;;;5017390;28;20080;-81
2022/08/17 04:58:17;;;;;;;11.50;4.30;;;;;;;;;;5047336;28;20107;-79
2022/08/17 05:00:42;;;;;;;18.70;4.72;;;;;;;;;;5020100;28;20031;-80
2022/08/17 05:03:08;;;;;;;17.73;5.15;;;;;;;;;;5035602;28;20061;-80
2022/08/17 05:05:37;;;;;;;9.18;4.40;;;;;;;;;;5036599;28;20041;-79
2022/08/17 05:08:03;;;;;;;10.73;4.13;;;;;;;;;;5033635;28;20087;-80
2022/08/17 05:10:30;;;;;;;11.63;4.93;;;;;;;;;;5008250;28;20032;-79
2022/08/17 05:12:56;;;;;;;11.25;3.92;;;;;;;;;;5055215;28;20033;-79
2022/08/17 05:15:21;;;;;;;10.95;4.43;;;;;;;;;;5037186;28;20055;-80
2022/08/17 05:17:47;;;;;;;9.75;4.05;;;;;;;;;;5017243;28;20120;-80
2022/08/17 05:20:12;;;;;;;9.82;3.67;;;;;;;;;;5033995;28;20477;-80
2022/08/17 05:22:50;;;;;;;10.40;3.78;;;;;;;;;;5034373;28;20037;-79
2022/08/17 05:25:19;;;;;;;13.32;4.40;;;;;;;;;;5033777;28;20045;-80
2022/08/17 05:27:45;;;;;;;9.18;4.07;;;;;;;;;;5034244;28;20049;-79
2022/08/17 05:30:11;;;;;;;10.15;3.88;;;;;;;;;;5017273;28;20416;-80
2022/08/17 05:32:37;;;;;;;9.48;4.28;;;;;;;;;;5049453;28;20052;-80
2022/08/17 05:35:02;;;;;;;6.68;3.80;;;;;;;;;;5032366;28;20033;-80
2022/08/17 05:37:28;;;;;;;10.13;3.95;;;;;;;;;;5033023;28;20029;-79
2022/08/17 05:39:53;;;;;;;11.73;4.43;;;;;;;;;;5033454;28;20056;-79
2022/08/17 05:42:19;;;;;;;8.88;5.05;;;;;;;;;;5000618;28;20535;-80
2022/08/17 05:44:44;;;;;;;10.77;4.93;;;;;;;;;;5018849;28;20033;-80
2022/08/17 05:47:10;;;;;;;11.10;5.80;;;;;;;;;;5013683;28;20022;-79
2022/08/17 05:49:35;;;;;;;11.90;5.43;;;;;;;;;;5016777;28;20041;-83
2022/08/17 05:52:10;;;;;;;9.48;5.50;;;;;;;;;;5023715;28;20159;-84
2022/08/17 05:54:54;;;;;;;10.77;4.85;;;;;;;;;;5050750;28;20038;-85
2022/08/17 05:57:28;;;;;;;11.52;4.53;;;;;;;;;;5034026;28;20040;-80
2022/08/17 05:59:59;;;;;;;12.00;4.80;;;;;;;;;;5033167;28;20047;-79
2022/08/17 06:02:27;;;;;;;11.57;4.60;;;;;;;;;;5029525;28;20060;-80
2022/08/17 06:05:08;;;;;;;14.18;4.40;;;;;;;;;;5042569;28;20165;-80
2022/08/17 06:07:52;;;;;;;15.55;4.50;;;;;;;;;;5041331;28;20525;-79
2022/08/17 06:10:21;;;;;;;11.00;4.03;;;;;;;;;;5033959;28;20034;-80
2022/08/17 06:13:05;;;;;;;16.23;3.90;;;;;;;;;;5033295;28;20420;-79
2022/08/17 06:15:50;;;;;;;7.95;3.80;;;;;;;;;;5036332;28;20040;-80
2022/08/17 06:18:15;;;;;;;7.00;3.67;;;;;;;;;;5016315;28;20025;-82
2022/08/17 06:20:42;;;;;;;13.52;3.80;;;;;;;;;;5034512;28;20514;-80
2022/08/17 06:23:09;;;;;;;8.93;3.15;;;;;;;;;;5035434;28;20030;-80
2022/08/17 06:25:36;;;;;;;15.07;4.13;;;;;;;;;;5014375;28;20037;-80
2022/08/17 06:28:07;;;;;;;8.20;3.28;;;;;;;;;;5036645;28;20064;-80
2022/08/17 06:30:35;;;;;;;10.23;3.60;;;;;;;;;;5026922;28;20033;-81
2022/08/17 06:33:04;;;;;;;10.13;3.00;;;;;;;;;;5021865;28;20040;-79
2022/08/17 06:35:32;;;;;;;11.93;3.17;;;;;;;;;;5014657;28;20034;-80
2022/08/17 06:38:00;;;;;;;12.25;8.05;;;;;;;;;;5034429;28;20059;-82
2022/08/17 06:40:36;;;;;;;9.65;3.90;;;;;;;;;;5040486;28;20026;-81
2022/08/17 06:43:08;;;;;;;9.30;3.20;;;;;;;;;;5033398;28;20041;-79
2022/08/17 06:45:35;;;;;;;8.10;3.00;;;;;;;;;;5014047;28;20030;-79
2022/08/17 06:48:06;;;;;;;5.95;3.20;;;;;;;;;;5037114;28;20049;-79
2022/08/17 06:50:36;;;;;;;9.02;3.30;;;;;;;;;;5039314;28;20037;-79
2022/08/17 06:53:09;;;;;;;9.75;3.33;;;;;;;;;;5015229;28;20039;-80
2022/08/17 06:55:54;;;;;;;6.15;3.50;;;;;;;;;;5015214;28;20471;-79
2022/08/17 06:58:21;;;;;;;9.40;3.63;;;;;;;;;;5035723;28;20021;-80
2022/08/17 07:00:46;;;;;;;10.75;3.40;;;;;;;;;;5034389;28;20579;-80
2022/08/17 07:03:20;;;;;;;6.32;3.42;;;;;;;;;;5039780;28;20037;-81
2022/08/17 07:05:52;;;;;;;6.50;3.50;;;;;;;;;;5019722;28;20026;-81
2022/08/17 07:08:38;;;;;;;12.15;4.28;;;;;;;;;;5041275;28;20045;-82
2022/08/17 07:11:07;;;;;;;9.63;4.00;;;;;;;;;;5035126;28;20137;-79
2022/08/17 07:13:36;;;;;;;9.80;3.92;;;;;;;;;;5025679;28;20037;-82
2022/08/17 07:16:24;;;;;;;11.25;3.88;;;;;;;;;;5041154;28;20083;-81
2022/08/17 07:18:51;;;;;;;11.48;4.20;;;;;;;;;;5020322;28;20136;-80
2022/08/17 07:21:20;;;;;;;11.18;3.78;;;;;;;;;;5040731;28;20025;-81
2022/08/17 07:23:59;;;;;;;9.45;3.30;;;;;;;;;;5037303;28;20042;-80
2022/08/17 07:26:24;;;;;;;11.38;6.03;;;;;;;;;;5038274;28;20037;-80
2022/08/17 07:28:50;;;;;;;12.88;4.43;;;;;;;;;;5020284;28;20049;-81
2022/08/17 07:31:16;;;;;;;9.65;3.72;;;;;;;;;;5013781;28;20009;-80
2022/08/17 07:33:41;;;;;;;12.45;3.58;;;;;;;;;;5041237;28;20033;-81
2022/08/17 07:36:20;;;;;;;9.32;3.65;;;;;;;;;;5045999;28;20503;-81
2022/08/17 07:38:54;;;;;;;12.23;3.97;;;;;;;;;;5033345;28;20044;-80
2022/08/17 07:41:19;;;;;;;15.70;3.78;;;;;;;;;;5045818;28;20487;-82
2022/08/17 07:43:45;;;;;;;13.02;3.38;;;;;;;;;;5024870;28;20051;-80
2022/08/17 07:49:14;;;;;;;9.80;3.53;;;;;;;;;;5048526;28;20032;-79
2022/08/17 07:51:39;;;;;;;10.05;3.90;;;;;;;;;;5047384;28;20025;-81
2022/08/17 07:54:11;;;;;;;9.27;2.90;;;;;;;;;;5042534;28;20116;-81
2022/08/17 07:56:39;;;;;;;9.70;3.35;;;;;;;;;;5026839;28;20025;-80
2022/08/17 07:59:05;;;;;;;8.02;3.25;;;;;;;;;;5045687;28;20021;-79
2022/08/17 08:01:31;;;;;;;12.00;3.30;;;;;;;;;;5039965;28;20080;-81
2022/08/17 08:03:56;;;;;;;8.98;3.38;;;;;;;;;;5007325;28;20082;-80
2022/08/17 08:06:22;;;;;;;11.48;3.05;;;;;;;;;;5046110;28;20044;-81
2022/08/17 08:08:53;;;;;;;8.25;2.90;;;;;;;;;;5035461;28;20017;-80
2022/08/17 08:11:32;;;;;;;6.97;2.92;;;;;;;;;;5033237;28;20055;-78
2022/08/17 08:14:15;;;;;;;7.78;2.80;;;;;;;;;;5029590;28;20037;-78
2022/08/17 08:16:43;;;;;;;5.88;3.42;;;;;;;;;;5024860;28;20116;-81
2022/08/17 08:19:11;;;;;;;6.47;3.15;;;;;;;;;;5023326;28;20068;-82
2022/08/17 08:21:48;;;;;;;10.02;3.33;;;;;;;;;;5035754;28;20037;-80
2022/08/17 08:24:13;;;;;;;5.55;2.83;;;;;;;;;;5043459;28;20045;-80
2022/08/17 08:26:59;;;;;;;6.18;3.13;;;;;;;;;;5040243;28;20032;-79
2022/08/17 08:29:37;;;;;;;8.75;3.35;;;;;;;;;;5031516;28;20099;-79
2022/08/17 08:32:08;;;;;;;9.82;3.88;;;;;;;;;;5031591;28;20037;-81
2022/08/17 08:34:45;;;;;;;11.32;3.67;;;;;;;;;;5041237;28;20089;-78
2022/08/17 08:37:30;;;;;;;6.03;3.03;;;;;;;;;;5042919;28;20095;-80
2022/08/17 08:40:09;;;;;;;12.57;3.33;;;;;;;;;;5036716;28;20047;-80
2022/08/17 08:42:38;;;;;;;9.05;2.90;;;;;;;;;;5030250;28;20566;-80
2022/08/17 08:45:05;;;;;;;8.00;3.13;;;;;;;;;;5044262;28;20034;-80
2022/08/17 08:47:37;;;;;;;9.70;3.10;;;;;;;;;;5048809;28;20044;-79
2022/08/17 08:50:06;;;;;;;8.27;3.10;;;;;;;;;;5048107;28;20033;-80
2022/08/17 08:52:32;;;;;;;8.35;3.03;;;;;;;;;;5036460;28;20104;-78
2022/08/17 08:55:01;;;;;;;8.73;3.20;;;;;;;;;;5038831;28;20057;-79
2022/08/17 08:57:29;;;;;;;8.90;3.53;;;;;;;;;;5039120;28;20484;-80
2022/08/17 09:00:05;;;;;;;8.30;3.15;;;;;;;;;;5036861;28;20075;-78
2022/08/17 09:02:33;;;;;;;5.97;3.13;;;;;;;;;;5036512;28;20519;-79
2022/08/17 09:05:06;;;;;;;12.50;3.58;;;;;;;;;;5038692;28;20029;-81
2022/08/17 09:07:53;;;;;;;9.18;3.53;;;;;;;;;;5038350;28;20056;-81
2022/08/17 09:10:33;;;;;;;8.90;3.40;;;;;;;;;;5016358;28;20047;-81
2022/08/17 09:13:05;;;;;;;6.10;3.22;;;;;;;;;;5020521;28;20062;-80
2022/08/17 09:16:03;;;;;;;9.00;3.40;;;;;;;;;;5040271;28;20530;-81
2022/08/17 09:18:32;;;;;;;6.95;3.15;;;;;;;;;;5033231;28;20046;-81
2022/08/17 09:21:02;;;;;;;6.03;3.20;;;;;;;;;;5005023;28;20120;-80
2022/08/17 09:23:50;;;;;;;6.13;3.20;;;;;;;;;;5018261;28;20041;-80
2022/08/17 09:26:20;;;;;;;9.75;3.38;;;;;;;;;;5036361;28;20132;-80
2022/08/17 09:28:47;;;;;;;5.32;3.00;;;;;;;;;;5017072;28;20474;-80
2022/08/17 09:31:16;;;;;;;7.47;3.13;;;;;;;;;;5024392;28;20454;-80
2022/08/17 09:33:43;;;;;;;12.10;3.00;;;;;;;;;;5036842;28;20038;-80
2022/08/17 09:36:17;;;;;;;9.40;3.47;;;;;;;;;;5040094;28;20029;-80
2022/08/17 09:38:43;;;;;;;9.02;3.72;;;;;;;;;;5020792;28;20060;-80
2022/08/17 09:41:11;;;;;;;9.80;3.85;;;;;;;;;;5017467;28;20021;-80
2022/08/17 09:43:42;;;;;;;8.48;3.42;;;;;;;;;;5035971;28;20412;-80
2022/08/17 09:46:11;;;;;;;8.77;3.33;;;;;;;;;;5039391;28;20115;-81
2022/08/17 09:48:45;;;;;;;10.98;3.35;;;;;;;;;;5022712;28;20029;-79
2022/08/17 09:51:29;;;;;;;10.75;3.95;;;;;;;;;;5033702;28;20029;-81
2022/08/17 09:53:54;;;;;;;8.95;3.60;;;;;;;;;;5021557;28;20035;-81
2022/08/17 09:56:23;;;;;;;6.18;3.53;;;;;;;;;;5042894;28;20049;-80
2022/08/17 09:58:49;;;;;;;5.22;3.63;;;;;;;;;;5036598;28;20392;-80
2022/08/17 10:01:20;;;;;;;6.03;3.63;;;;;;;;;;5034216;28;20025;-80
2022/08/17 10:03:47;;;;;;;6.00;3.30;;;;;;;;;;5036168;28;20086;-81
2022/08/17 10:06:23;;;;;;;8.63;3.38;;;;;;;;;;5037696;28;20017;-81
2022/08/17 10:08:51;;;;;;;9.80;3.50;;;;;;;;;;5001646;28;20144;-81
2022/08/17 10:14:22;;;;;;;7.80;3.40;;;;;;;;;;5035238;28;20051;-80
2022/08/17 10:16:54;;;;;;;12.30;3.67;;;;;;;;;;5045906;28;20025;-80
2022/08/17 10:19:23;;;;;;;6.13;3.38;;;;;;;;;;5025259;28;20411;-81
2022/08/17 10:27:39;;;;;;;9.00;3.75;;;;;;;;;;5021684;28;20128;-80
2022/08/17 10:30:04;;;;;;;7.15;3.95;;;;;;;;;;5035495;28;20047;-83
2022/08/17 10:32:31;;;;;;;6.22;3.35;;;;;;;;;;5019783;28;20567;-80
2022/08/17 10:35:16;;;;;;;10.15;3.97;;;;;;;;;;5028800;28;20043;-81
2022/08/17 10:37:41;;;;;;;8.18;3.13;;;;;;;;;;5051155;28;20462;-80
2022/08/17 10:40:07;;;;;;;8.80;3.42;;;;;;;;;;5036172;28;20049;-81
2022/08/17 10:42:34;;;;;;;7.57;3.40;;;;;;;;;;5035535;28;20036;-81
2022/08/17 10:45:02;;;;;;;5.70;3.33;;;;;;;;;;5022726;28;20045;-81
2022/08/17 10:47:58;;;;;;;8.50;3.17;;;;;;;;;;5039920;28;20044;-81
2022/08/17 10:50:42;;;;;;;7.43;3.40;;;;;;;;;;5037455;28;20096;-80
2022/08/17 10:53:08;;;;;;;10.07;3.45;;;;;;;;;;5050669;28;20044;-80
2022/08/17 10:55:33;;;;;;;4.80;3.20;;;;;;;;;;5025744;28;20021;-82
2022/08/17 10:58:20;;;;;;;6.30;3.40;;;;;;;;;;5041091;28;20037;-84
2022/08/17 11:00:52;;;;;;;6.95;3.45;;;;;;;;;;5022712;28;20037;-80
2022/08/17 11:03:18;;;;;;;7.30;3.63;;;;;;;;;;5041126;28;20518;-79
2022/08/17 11:05:49;;;;;;;6.40;3.55;;;;;;;;;;5037617;28;20026;-80
2022/08/17 11:08:22;;;;;;;8.95;3.72;;;;;;;;;;5041801;28;20029;-80
2022/08/17 11:11:24;;;;;;;5.75;3.08;;;;;;;;;;5042578;28;20045;-83
2022/08/17 11:14:09;;;;;;;7.95;3.20;;;;;;;;;;5006283;28;20100;-80
2022/08/17 11:16:41;;;;;;;7.97;3.72;;;;;;;;;;5050017;28;20150;-81
2022/08/17 11:19:10;;;;;;;8.40;3.20;;;;;;;;;;5037448;28;20045;-82
2022/08/17 11:21:54;;;;;;;8.63;3.25;;;;;;;;;;5038578;28;20029;-79
2022/08/17 11:24:21;;;;;;;9.30;3.20;;;;;;;;;;5042936;28;20031;-83
2022/08/17 11:27:02;;;;;;;8.80;3.20;;;;;;;;;;5043583;28;20085;-81
2022/08/17 11:29:46;;;;;;;6.82;3.30;;;;;;;;;;5046568;28;20064;-82
2022/08/17 11:32:26;;;;;;;8.13;3.45;;;;;;;;;;5022907;28;20518;-81
2022/08/17 11:34:56;;;;;;;6.13;3.30;;;;;;;;;;5053009;28;20063;-83
2022/08/17 11:37:25;;;;;;;5.90;3.50;;;;;;;;;;5011299;28;20036;-81
2022/08/17 11:40:13;;;;;;;5.78;3.60;;;;;;;;;;5026022;28;20090;-81
2022/08/17 11:42:57;;;;;;;6.57;3.67;;;;;;;;;;5037096;28;20071;-82
2022/08/17 11:45:25;;;;;;;8.30;3.13;;;;;;;;;;5043414;28;20084;-81
2022/08/17 11:53:35;;;;;;;6.15;3.60;;;;;;;;;;5036744;28;20061;-79
2022/08/17 11:56:06;;;;;;;11.20;3.63;;;;;;;;;;5044450;28;20040;-79
2022/08/17 11:58:36;;;;;;;10.15;3.90;;;;;;;;;;5019948;28;20060;-80
2022/08/17 12:01:11;;;;;;;9.18;3.95;;;;;;;;;;5035773;28;20040;-80
2022/08/17 12:03:36;;;;;;;13.32;3.65;;;;;;;;;;5023428;28;20048;-81
2022/08/17 12:06:21;;;;;;;9.45;3.90;;;;;;;;;;5053996;28;20032;-81
2022/08/17 12:08:50;;;;;;;9.30;3.90;;;;;;;;;;5026375;28;20037;-82
2022/08/17 12:11:17;;;;;;;12.95;3.80;;;;;;;;;;5020347;28;20033;-82
2022/08/17 12:13:47;;;;;;;12.73;3.97;;;;;;;;;;5026918;28;20451;-79
2022/08/17 12:16:14;;;;;;;6.93;4.10;;;;;;;;;;5034076;28;20036;-79
2022/08/17 12:18:40;;;;;;;10.52;4.45;;;;;;;;;;5022198;28;20377;-82
2022/08/17 12:21:10;;;;;;;9.68;4.30;;;;;;;;;;5042907;28;20022;-80
2022/08/17 12:23:39;;;;;;;11.55;3.85;;;;;;;;;;5029342;28;20105;-79
2022/08/17 12:26:05;;;;;;;7.00;4.03;;;;;;;;;;5025419;28;20108;-80
2022/08/17 12:28:34;;;;;;;5.90;3.70;;;;;;;;;;5056741;28;20111;-79
2022/08/17 12:31:01;;;;;;;10.70;4.47;;;;;;;;;;5036016;28;20120;-79
2022/08/17 12:33:27;;;;;;;8.32;4.85;;;;;;;;;;5021622;28;20519;-82
2022/08/17 12:36:01;;;;;;;14.65;5.70;;;;;;;;;;5020352;28;20033;-81
2022/08/17 12:38:27;;;;;;;11.52;5.07;;;;;;;;;;5017514;28;20036;-81
2022/08/17 12:40:53;;;;;;;13.48;5.80;;;;;;;;;;5005326;28;20530;-79
2022/08/17 12:43:19;;;;;;;15.40;5.57;;;;;;;;;;5035609;28;20448;-81
2022/08/17 12:45:52;;;;;;;10.73;4.40;;;;;;;;;;5035979;28;20064;-80
2022/08/17 12:48:22;;;;;;;9.73;5.32;;;;;;;;;;5003500;28;20041;-80
2022/08/17 12:50:48;;;;;;;12.55;5.78;;;;;;;;;;5019925;28;20048;-82
2022/08/17 12:53:20;;;;;;;10.82;5.40;;;;;;;;;;5019536;28;20029;-79
2022/08/17 12:55:46;;;;;;;12.48;5.85;;;;;;;;;;5018686;28;20029;-82
2022/08/17 12:58:16;;;;;;;14.15;6.53;;;;;;;;;;5023268;28;20024;-81
2022/08/17 13:00:44;;;;;;;8.98;5.40;;;;;;;;;;5035221;28;20037;-80
2022/08/17 13:03:18;;;;;;;10.82;6.50;;;;;;;;;;5039291;28;20546;-80
2022/08/17 13:05:56;;;;;;;10.25;6.75;;;;;;;;;;5038995;28;20484;-80
2022/08/17 13:08:34;;;;;;;15.07;6.50;;;;;;;;;;5031758;28;20033;-81
2022/08/17 13:11:27;;;;;;;12.35;5.88;;;;;;;;;;5026994;28;20131;-81
2022/08/17 13:13:54;;;;;;;14.65;6.78;;;;;;;;;;5034668;28;20053;-82
2022/08/17 13:16:27;;;;;;;15.05;6.95;;;;;;;;;;5020320;28;20030;-79
2022/08/17 13:18:52;;;;;;;9.95;5.70;;;;;;;;;;5026085;28;20029;-79
2022/08/17 13:21:18;;;;;;;14.93;6.68;;;;;;;;;;5050139;28;20036;-80
2022/08/17 13:24:02;;;;;;;8.40;5.68;;;;;;;;;;5052084;28;20471;-80
2022/08/17 13:26:38;;;;;;;13.52;6.93;;;;;;;;;;5053616;28;20033;-80
2022/08/17 13:29:04;;;;;;;11.60;7.25;;;;;;;;;;5040649;28;20140;-81
2022/08/17 13:31:31;;;;;;;13.35;7.55;;;;;;;;;;5029419;28;20041;-80
2022/08/17 13:34:16;;;;;;;10.05;6.53;;;;;;;;;;5034542;28;20044;-80
2022/08/17 13:36:41;;;;;;;16.20;7.85;;;;;;;;;;5037209;28;20042;-79
2022/08/17 13:39:11;;;;;;;16.25;8.10;;;;;;;;;;5046631;28;20030;-80
2022/08/17 13:41:36;;;;;;;11.82;7.57;;;;;;;;;;5026976;28;20412;-80
2022/08/17 13:44:22;;;;;;;15.80;8.25;;;;;;;;;;5035790;28;20014;-84
2022/08/17 13:46:50;;;;;;;13.35;7.80;;;;;;;;;;5017257;28;20124;-83
2022/08/17 13:49:16;;;;;;;15.18;8.45;;;;;;;;;;5019409;28;20168;-80
2022/08/17 13:51:42;;;;;;;11.68;8.02;;;;;;;;;;5035001;28;20067;-79
2022/08/17 13:54:19;;;;;;;13.38;9.18;;;;;;;;;;5019182;28;20459;-80
2022/08/17 13:56:50;;;;;;;14.73;8.77;;;;;;;;;;5019446;28;20116;-80
2022/08/17 13:59:24;;;;;;;12.25;8.52;;;;;;;;;;5034161;28;20086;-81
2022/08/17 14:01:49;;;;;;;12.68;7.97;;;;;;;;;;5035737;28;20033;-82
2022/08/17 14:04:19;;;;;;;14.80;9.38;;;;;;;;;;5027481;28;20040;-81
2022/08/17 14:06:54;;;;;;;13.85;8.68;;;;;;;;;;5017006;28;20029;-81
2022/08/17 14:09:24;;;;;;;14.18;8.07;;;;;;;;;;5036729;28;20041;-78
2022/08/17 14:11:50;;;;;;;16.10;9.00;;;;;;;;;;5000481;28;20033;-80
2022/08/17 14:14:15;;;;;;;16.58;9.05;;;;;;;;;;5033318;28;20040;-79
2022/08/17 14:16:41;;;;;;;17.98;9.10;;;;;;;;;;5015073;28;20107;-80
2022/08/17 14:19:08;;;;;;;11.10;7.97;;;;;;;;;;5022176;28;20116;-79
2022/08/17 14:21:34;;;;;;;16.45;9.05;;;;;;;;;;5032353;28;20021;-81
2022/08/17 14:24:00;;;;;;;15.13;8.38;;;;;;;;;;5023608;28;20044;-80
2022/08/17 14:26:26;;;;;;;13.55;7.97;;;;;;;;;;5052768;28;20400;-81
2022/08/17 14:28:51;;;;;;;13.77;7.97;;;;;;;;;;5037333;28;20049;-81
2022/08/17 14:31:19;;;;;;;15.98;8.15;;;;;;;;;;5038224;28;20109;-79
2022/08/17 14:33:44;;;;;;;14.35;8.27;;;;;;;;;;5037489;28;20491;-79
2022/08/17 14:36:10;;;;;;;14.80;9.63;;;;;;;;;;5018599;28;20033;-81
2022/08/17 14:38:36;;;;;;;13.13;9.02;;;;;;;;;;5022810;28;20044;-80
2022/08/17 14:41:05;;;;;;;14.65;9.45;;;;;;;;;;5045753;28;20037;-83
2022/08/17 14:43:33;;;;;;;12.32;9.02;;;;;;;;;;5021310;28;20123;-81
2022/08/17 14:45:58;;;;;;;14.85;8.38;;;;;;;;;;5024497;28;20036;-81
2022/08/17 14:48:24;;;;;;;14.60;8.38;;;;;;;;;;5035908;28;20496;-81
2022/08/17 14:50:49;;;;;;;14.57;8.38;;;;;;;;;;5049600;28;20052;-82
2022/08/17 14:53:15;;;;;;;15.27;8.40;;;;;;;;;;5021306;28;20045;-80
2022/08/17 14:55:40;;;;;;;12.77;7.85;;;;;;;;;;5038751;28;20104;-80
2022/08/17 14:58:07;;;;;;;12.57;7.38;;;;;;;;;;5037653;28;20040;-80
2022/08/17 15:00:33;;;;;;;16.30;7.60;;;;;;;;;;5039153;28;20396;-80
2022/08/17 15:02:58;;;;;;;14.23;7.30;;;;;;;;;;5018342;28;20038;-80
2022/08/17 15:05:25;;;;;;;14.15;6.93;;;;;;;;;;5038141;28;20476;-80
2022/08/17 15:07:52;;;;;;;10.65;7.22;;;;;;;;;;5027021;28;20041;-81
2022/08/17 15:10:17;;;;;;;14.38;7.97;;;;;;;;;;5027791;28;20115;-82
2022/08/17 15:12:43;;;;;;;10.77;7.30;;;;;;;;;;5029057;28;20172;-81
2022/08/17 15:15:09;;;;;;;15.95;7.05;;;;;;;;;;5021216;28;20092;-81
2022/08/17 15:17:35;;;;;;;15.68;7.60;;;;;;;;;;5019693;28;20071;-82
2022/08/17 15:20:00;;;;;;;14.85;7.93;;;;;;;;;;5010627;28;20064;-80
2022/08/17 15:22:26;;;;;;;17.05;8.55;;;;;;;;;;5033921;28;20042;-81